Time;durP1;ratioP1;P1;durP2;ratioP2;P2;SDS_P1;SDS_P2;PMS_P1;PMS_P2;Temp;Humidity;BMP_temperature;BMP_pressure;BME280_temperature;BME280_humidity;BME280_pressure;Samples;Min_cycle;Max_cycle;Signal;HPM_P1;HPM_P2
2023/10/26 00:01:02;;;;;;;0.93;0.55;;;;;;;5.48;100.00;100382.94;5013971;28;20054;-69
2023/10/26 00:03:27;;;;;;;0.57;0.50;;;;;;;5.69;100.00;100418.81;5014248;28;20040;-70
2023/10/26 00:05:52;;;;;;;3.58;0.60;;;;;;;5.74;100.00;100411.13;5013850;28;20392;-70
2023/10/26 00:08:18;;;;;;;0.77;0.60;;;;;;;5.94;100.00;100415.03;5013240;28;20160;-69
2023/10/26 00:10:43;;;;;;;0.68;0.30;;;;;;;5.78;100.00;100410.59;5014412;28;20124;-69
2023/10/26 00:13:09;;;;;;;0.80;0.47;;;;;;;5.55;100.00;100399.91;5032590;28;20030;-70
2023/10/26 00:15:34;;;;;;;0.55;0.50;;;;;;;5.74;100.00;100393.28;5016982;28;20040;-70
2023/10/26 00:18:00;;;;;;;0.60;0.47;;;;;;;5.75;100.00;100402.94;5016573;28;20041;-69
2023/10/26 00:20:25;;;;;;;1.50;1.02;;;;;;;5.65;100.00;100400.50;5013915;28;20476;-69
2023/10/26 00:22:51;;;;;;;0.73;0.40;;;;;;;5.76;100.00;100398.41;5014763;28;20034;-70
2023/10/26 00:25:16;;;;;;;0.65;0.50;;;;;;;5.93;100.00;100396.50;5016192;28;20030;-69
2023/10/26 00:27:42;;;;;;;1.00;0.50;;;;;;;5.48;100.00;100406.13;5014601;28;20026;-69
2023/10/26 00:30:11;;;;;;;1.45;0.40;;;;;;;5.57;100.00;100397.91;5014677;28;20121;-70
2023/10/26 00:32:37;;;;;;;0.75;0.40;;;;;;;5.61;100.00;100401.03;5013095;28;20026;-69
2023/10/26 00:35:03;;;;;;;1.13;0.50;;;;;;;5.78;100.00;100399.09;4996821;28;20091;-69
2023/10/26 00:37:30;;;;;;;0.60;0.60;;;;;;;5.61;100.00;100401.84;5014821;28;20481;-70
2023/10/26 00:39:55;;;;;;;0.70;0.40;;;;;;;5.79;100.00;100401.56;5013813;28;20592;-69
2023/10/26 00:42:21;;;;;;;1.38;0.55;;;;;;;5.89;100.00;100407.53;5013649;28;20132;-69
2023/10/26 00:44:46;;;;;;;0.98;0.50;;;;;;;5.82;100.00;100405.72;5028876;28;20041;-70
2023/10/26 00:47:13;;;;;;;0.90;0.60;;;;;;;5.84;100.00;100399.19;5012285;28;20461;-69
2023/10/26 00:49:40;;;;;;;1.65;0.50;;;;;;;5.77;100.00;100392.91;5013241;28;20413;-69
2023/10/26 00:52:06;;;;;;;0.73;0.40;;;;;;;5.88;100.00;100407.69;5013277;28;20095;-69
2023/10/26 00:54:34;;;;;;;2.50;0.60;;;;;;;5.88;100.00;100403.16;5013125;28;20516;-69
2023/10/26 00:57:01;;;;;;;0.88;0.40;;;;;;;5.71;100.00;100398.13;5030043;28;20032;-69
2023/10/26 00:59:28;;;;;;;1.48;0.50;;;;;;;5.55;100.00;100391.88;5013661;28;20038;-70
2023/10/26 01:01:55;;;;;;;2.40;0.60;;;;;;;5.87;100.00;100390.00;5029838;28;20060;-70
2023/10/26 01:04:21;;;;;;;1.27;0.68;;;;;;;5.88;100.00;100386.31;5030584;28;20026;-69
2023/10/26 01:06:46;;;;;;;0.57;0.40;;;;;;;5.56;100.00;100388.22;5027640;28;20032;-70
2023/10/26 01:09:12;;;;;;;0.50;0.50;;;;;;;5.91;100.00;100374.47;5029653;28;20128;-69
2023/10/26 01:11:38;;;;;;;0.70;0.60;;;;;;;5.96;100.00;100383.63;5012560;28;20496;-69
2023/10/26 01:14:05;;;;;;;0.95;0.68;;;;;;;6.08;100.00;100381.34;5012424;28;20057;-69
2023/10/26 01:16:30;;;;;;;2.00;0.55;;;;;;;6.09;100.00;100385.66;5011486;28;20025;-69
2023/10/26 01:19:00;;;;;;;1.90;0.60;;;;;;;6.13;100.00;100378.97;5012507;28;20025;-70
2023/10/26 01:21:27;;;;;;;0.77;0.52;;;;;;;5.94;100.00;100385.66;5012350;28;20036;-70
2023/10/26 01:23:53;;;;;;;1.77;0.70;;;;;;;6.01;100.00;100381.25;5012135;28;20037;-69
2023/10/26 01:26:18;;;;;;;0.80;0.60;;;;;;;5.91;100.00;100383.28;5012764;28;20041;-70
2023/10/26 01:28:44;;;;;;;0.77;0.60;;;;;;;6.09;100.00;100383.00;5012853;28;20124;-69
2023/10/26 01:31:09;;;;;;;0.93;0.60;;;;;;;6.09;100.00;100378.50;5011717;28;20013;-69
2023/10/26 01:33:35;;;;;;;1.35;0.70;;;;;;;6.00;100.00;100378.75;5012411;28;20064;-69
2023/10/26 01:36:01;;;;;;;0.93;0.70;;;;;;;5.97;100.00;100379.13;5012848;28;20105;-70
2023/10/26 01:38:27;;;;;;;1.42;0.70;;;;;;;5.90;100.00;100376.31;5013340;28;20496;-69
2023/10/26 01:40:52;;;;;;;1.30;0.80;;;;;;;5.93;100.00;100384.00;5012744;28;20121;-69
2023/10/26 01:43:18;;;;;;;1.67;0.80;;;;;;;5.98;100.00;100352.22;5012532;28;20057;-69
2023/10/26 01:45:44;;;;;;;1.15;0.75;;;;;;;6.07;100.00;100369.03;5027037;28;20358;-70
2023/10/26 01:48:09;;;;;;;0.63;0.55;;;;;;;5.80;100.00;100379.22;5026802;28;20100;-70
2023/10/26 01:50:35;;;;;;;0.70;0.65;;;;;;;5.72;100.00;100360.56;5011687;28;20513;-70
2023/10/26 01:53:00;;;;;;;0.60;0.52;;;;;;;5.85;100.00;100371.47;5010862;28;20029;-70
2023/10/26 01:55:26;;;;;;;1.23;0.77;;;;;;;5.87;100.00;100374.00;5012077;28;20025;-70
2023/10/26 01:57:51;;;;;;;1.65;0.80;;;;;;;5.71;100.00;100364.25;5012112;28;20079;-69
2023/10/26 02:00:17;;;;;;;1.42;0.80;;;;;;;6.00;100.00;100371.56;5011751;28;20034;-70
2023/10/26 02:02:43;;;;;;;0.70;0.68;;;;;;;6.17;100.00;100382.94;5010845;28;20118;-70
2023/10/26 02:05:08;;;;;;;0.90;0.70;;;;;;;6.03;100.00;100381.91;5011833;28;20030;-69
2023/10/26 02:07:34;;;;;;;0.90;0.70;;;;;;;5.96;100.00;100378.28;5011516;28;20033;-70
2023/10/26 02:09:59;;;;;;;0.98;0.70;;;;;;;6.11;100.00;100381.81;5011637;28;20480;-70
2023/10/26 02:12:25;;;;;;;1.08;0.77;;;;;;;6.17;100.00;100382.13;5011534;28;20036;-70
2023/10/26 02:14:51;;;;;;;2.90;0.80;;;;;;;6.24;100.00;100372.38;5009849;28;20034;-70
2023/10/26 02:17:16;;;;;;;1.15;0.75;;;;;;;6.27;100.00;100372.00;5011367;28;20030;-70
2023/10/26 02:19:41;;;;;;;0.88;0.63;;;;;;;6.11;100.00;100371.13;5011963;28;20121;-70
2023/10/26 02:22:07;;;;;;;1.05;0.82;;;;;;;6.15;100.00;100363.59;4994423;28;20025;-70
2023/10/26 02:24:32;;;;;;;1.23;0.70;;;;;;;6.41;100.00;100365.84;5029868;28;20040;-70
2023/10/26 02:26:58;;;;;;;1.40;1.02;;;;;;;6.17;100.00;100366.91;5014946;28;20061;-69
2023/10/26 02:29:23;;;;;;;1.35;0.80;;;;;;;6.15;100.00;100354.75;5011372;28;20107;-70
2023/10/26 02:31:49;;;;;;;1.08;0.80;;;;;;;6.18;100.00;100351.72;5013151;28;20033;-70
2023/10/26 02:34:15;;;;;;;1.45;0.90;;;;;;;6.22;100.00;100361.84;5012980;28;20044;-70
2023/10/26 02:36:40;;;;;;;1.95;0.80;;;;;;;6.03;100.00;100346.34;5011441;28;20477;-70
2023/10/26 02:39:06;;;;;;;0.70;0.60;;;;;;;5.97;100.00;100355.91;5010673;28;20041;-70
2023/10/26 02:41:31;;;;;;;0.70;0.52;;;;;;;6.16;100.00;100351.06;5012010;28;20034;-70
2023/10/26 02:43:57;;;;;;;1.15;0.70;;;;;;;6.14;100.00;100345.09;5011842;28;20068;-70
2023/10/26 02:46:23;;;;;;;0.88;0.65;;;;;;;6.08;100.00;100349.31;5011152;28;20041;-70
2023/10/26 02:48:49;;;;;;;1.23;0.68;;;;;;;6.06;100.00;100330.81;5009351;28;20058;-70
2023/10/26 02:51:14;;;;;;;1.10;0.60;;;;;;;6.08;100.00;100347.44;5011386;28;20084;-70
2023/10/26 02:53:42;;;;;;;1.95;0.73;;;;;;;6.06;100.00;100346.81;5010014;28;20037;-70
2023/10/26 02:56:08;;;;;;;0.68;0.68;;;;;;;6.21;100.00;100346.84;5011399;28;20219;-70
2023/10/26 02:58:33;;;;;;;0.65;0.63;;;;;;;6.20;100.00;100337.19;5014486;28;20030;-70
2023/10/26 03:00:59;;;;;;;1.02;0.70;;;;;;;6.16;100.00;100333.22;5032094;28;20195;-70
2023/10/26 03:03:24;;;;;;;0.63;0.60;;;;;;;6.19;100.00;100332.00;5010838;28;20038;-70
2023/10/26 03:05:50;;;;;;;1.73;0.70;;;;;;;6.24;100.00;100335.78;5009747;28;20045;-70
2023/10/26 03:08:15;;;;;;;1.70;0.60;;;;;;;5.94;100.00;100334.91;5010730;28;20041;-70
2023/10/26 03:10:40;;;;;;;1.33;0.70;;;;;;;5.91;100.00;100313.88;5010682;28;20030;-70
2023/10/26 03:13:06;;;;;;;1.23;0.75;;;;;;;6.04;100.00;100342.66;5009773;28;20113;-70
2023/10/26 03:15:31;;;;;;;0.63;0.60;;;;;;;6.10;100.00;100326.75;5009457;28;20026;-70
2023/10/26 03:17:57;;;;;;;0.65;0.60;;;;;;;6.10;100.00;100342.78;5010562;28;20057;-70
2023/10/26 03:20:23;;;;;;;0.85;0.65;;;;;;;6.17;100.00;100350.06;5009747;28;20042;-70
2023/10/26 03:22:48;;;;;;;1.17;0.80;;;;;;;6.14;100.00;100310.34;5010280;28;20049;-70
2023/10/26 03:25:16;;;;;;;1.50;0.80;;;;;;;6.00;100.00;100315.50;5009849;28;20105;-70
2023/10/26 03:27:41;;;;;;;1.23;0.70;;;;;;;6.19;100.00;100334.66;5010794;28;20053;-70
2023/10/26 03:30:07;;;;;;;2.72;0.80;;;;;;;6.07;100.00;100337.78;5028153;28;20072;-70
2023/10/26 03:32:33;;;;;;;0.60;0.60;;;;;;;6.30;100.00;100320.88;5030071;28;20037;-70
2023/10/26 03:34:59;;;;;;;1.52;0.55;;;;;;;6.36;100.00;100336.19;5014528;28;20080;-70
2023/10/26 03:37:25;;;;;;;0.60;0.50;;;;;;;6.15;100.00;100317.34;5015418;28;20013;-70
2023/10/26 03:39:50;;;;;;;1.08;0.63;;;;;;;6.21;100.00;100333.47;5013436;28;20030;-70
2023/10/26 03:42:16;;;;;;;1.10;0.75;;;;;;;6.23;100.00;100327.97;5015988;28;20481;-71
2023/10/26 03:44:42;;;;;;;0.90;0.77;;;;;;;6.41;100.00;100330.28;5014069;28;20405;-70
2023/10/26 03:47:07;;;;;;;1.05;0.77;;;;;;;6.37;100.00;100327.16;5013300;28;20612;-70
2023/10/26 03:49:34;;;;;;;1.55;0.80;;;;;;;6.43;100.00;100331.75;5013091;28;20061;-70
2023/10/26 03:52:00;;;;;;;0.95;0.80;;;;;;;6.44;100.00;100321.91;4980365;28;20022;-70
2023/10/26 03:54:25;;;;;;;1.45;0.95;;;;;;;6.11;100.00;100307.03;5014355;28;20412;-70
2023/10/26 03:56:51;;;;;;;0.93;0.77;;;;;;;6.25;100.00;100328.59;5017401;28;20029;-70
2023/10/26 03:59:16;;;;;;;1.13;0.80;;;;;;;6.37;100.00;100318.31;5030645;28;20034;-70
2023/10/26 04:01:42;;;;;;;1.40;1.05;;;;;;;6.36;100.00;100317.47;5024399;28;20030;-70
2023/10/26 04:04:07;;;;;;;1.40;0.90;;;;;;;6.41;100.00;100317.75;5013690;28;20069;-70
2023/10/26 04:06:33;;;;;;;1.83;0.95;;;;;;;6.50;100.00;100310.47;5014624;28;20036;-70
2023/10/26 04:08:58;;;;;;;1.00;0.80;;;;;;;6.64;100.00;100320.31;5012866;28;20439;-70
2023/10/26 04:11:24;;;;;;;1.15;0.98;;;;;;;6.54;100.00;100323.28;5012052;28;20484;-70
2023/10/26 04:13:51;;;;;;;1.10;0.75;;;;;;;6.45;100.00;100310.19;5012753;28;20060;-71
2023/10/26 04:16:17;;;;;;;2.20;0.93;;;;;;;6.34;100.00;100303.47;5012963;28;20057;-71
2023/10/26 04:18:42;;;;;;;1.38;0.93;;;;;;;6.54;100.00;100311.75;5012274;28;20448;-71
2023/10/26 04:21:08;;;;;;;3.88;1.10;;;;;;;6.48;100.00;100312.50;5012470;28;20687;-71
2023/10/26 04:23:33;;;;;;;1.00;0.90;;;;;;;6.29;100.00;100309.38;5012503;28;20091;-69
2023/10/26 04:25:58;;;;;;;1.55;0.82;;;;;;;6.40;100.00;100307.25;5008611;28;20038;-68
2023/10/26 04:28:24;;;;;;;2.00;1.02;;;;;;;6.39;100.00;100310.91;4993885;28;20504;-68
2023/10/26 04:30:50;;;;;;;1.60;1.08;;;;;;;6.23;100.00;100304.75;4976617;28;20497;-70
2023/10/26 04:33:17;;;;;;;1.52;1.00;;;;;;;6.25;100.00;100308.06;4992336;28;20029;-71
2023/10/26 04:35:44;;;;;;;1.80;1.30;;;;;;;6.00;100.00;100312.81;4994279;28;20091;-70
2023/10/26 04:38:10;;;;;;;1.50;1.10;;;;;;;6.11;100.00;100306.19;4994430;28;20026;-70
2023/10/26 04:40:39;;;;;;;1.30;0.82;;;;;;;6.40;100.00;100308.06;4992429;28;20123;-69
2023/10/26 04:43:05;;;;;;;2.60;1.08;;;;;;;6.35;100.00;100308.59;5012191;28;20021;-69
2023/10/26 04:45:31;;;;;;;2.55;1.00;;;;;;;6.17;100.00;100308.16;5014031;28;20100;-70
2023/10/26 04:47:57;;;;;;;3.38;1.20;;;;;;;6.26;100.00;100293.69;5028638;28;20038;-69
2023/10/26 04:50:23;;;;;;;1.48;1.00;;;;;;;6.40;100.00;100308.06;5013396;28;20760;-70
2023/10/26 04:52:48;;;;;;;2.15;0.90;;;;;;;6.47;100.00;100309.00;5011546;28;20503;-69
2023/10/26 04:55:14;;;;;;;2.15;1.00;;;;;;;6.40;100.00;100300.06;5013159;28;20040;-69
2023/10/26 04:57:39;;;;;;;1.33;1.02;;;;;;;6.60;100.00;100305.66;5010179;28;20021;-69
2023/10/26 05:00:09;;;;;;;1.65;1.00;;;;;;;6.45;100.00;100307.50;5009588;28;20060;-69
2023/10/26 05:02:35;;;;;;;1.88;1.20;;;;;;;6.02;100.00;100291.25;5007578;28;20129;-68
2023/10/26 05:05:01;;;;;;;2.13;1.20;;;;;;;6.07;100.00;100287.03;4977065;28;20093;-68
2023/10/26 05:07:27;;;;;;;1.88;1.17;;;;;;;6.08;100.00;100296.72;5011284;28;20053;-69
2023/10/26 05:09:52;;;;;;;2.40;1.25;;;;;;;6.31;100.00;100310.00;5021297;28;20025;-70
2023/10/26 05:12:17;;;;;;;1.98;1.27;;;;;;;6.31;100.00;100306.50;5020006;28;20056;-70
2023/10/26 05:14:43;;;;;;;2.70;1.42;;;;;;;6.19;100.00;100291.94;5011879;28;20038;-70
2023/10/26 05:17:08;;;;;;;1.58;1.30;;;;;;;6.10;100.00;100299.22;5012956;28;20060;-70
2023/10/26 05:19:34;;;;;;;2.28;1.30;;;;;;;6.18;100.00;100279.59;5011117;28;20038;-70
2023/10/26 05:21:59;;;;;;;1.70;1.08;;;;;;;6.31;100.00;100293.13;5012089;28;20477;-70
2023/10/26 05:24:26;;;;;;;4.05;1.60;;;;;;;6.37;100.00;100292.41;5011675;28;20021;-70
2023/10/26 05:26:51;;;;;;;2.00;1.20;;;;;;;6.24;100.00;100289.53;5011265;28;20030;-70
2023/10/26 05:29:17;;;;;;;2.33;1.40;;;;;;;6.29;100.00;100297.81;5011248;28;20083;-70
2023/10/26 05:31:42;;;;;;;3.08;1.58;;;;;;;6.31;100.00;100295.81;5012946;28;20405;-70
2023/10/26 05:34:07;;;;;;;3.47;1.73;;;;;;;6.26;100.00;100293.69;5012436;28;20065;-70
2023/10/26 05:36:33;;;;;;;4.05;1.50;;;;;;;6.19;100.00;100287.44;5011297;28;20030;-70
2023/10/26 05:38:58;;;;;;;3.92;1.33;;;;;;;6.25;100.00;100280.50;5010805;28;20029;-70
2023/10/26 05:41:24;;;;;;;2.05;1.45;;;;;;;5.96;100.00;100289.31;5011538;28;20084;-70
2023/10/26 05:43:49;;;;;;;3.35;1.60;;;;;;;6.14;100.00;100289.81;5012212;28;20076;-70
2023/10/26 05:46:15;;;;;;;3.90;1.77;;;;;;;6.06;100.00;100276.53;5013370;28;20030;-70
2023/10/26 05:48:40;;;;;;;4.25;1.98;;;;;;;6.24;100.00;100268.16;5012124;28;20536;-70
2023/10/26 05:51:06;;;;;;;4.68;1.80;;;;;;;6.05;100.00;100283.72;5007034;28;20091;-70
2023/10/26 05:53:31;;;;;;;4.25;1.73;;;;;;;6.14;100.00;100289.00;4992148;28;20030;-70
2023/10/26 05:55:58;;;;;;;4.05;1.92;;;;;;;5.96;100.00;100271.47;4993209;28;20026;-70
2023/10/26 05:58:25;;;;;;;3.17;1.63;;;;;;;6.05;100.00;100280.22;4992301;28;20026;-70
2023/10/26 06:00:51;;;;;;;2.30;1.73;;;;;;;6.24;100.00;100279.69;4992500;28;20477;-70
2023/10/26 06:03:16;;;;;;;5.38;1.92;;;;;;;6.01;100.00;100281.59;4990836;28;20038;-70
2023/10/26 06:05:42;;;;;;;4.20;1.67;;;;;;;6.28;100.00;100285.47;4991923;28;20437;-70
2023/10/26 06:08:09;;;;;;;2.08;1.52;;;;;;;5.93;100.00;100274.50;4990293;28;20494;-70
2023/10/26 06:10:34;;;;;;;5.07;1.92;;;;;;;6.08;100.00;100280.69;4990724;28;20117;-70
2023/10/26 06:13:00;;;;;;;6.05;1.73;;;;;;;6.02;100.00;100281.41;4972902;28;20489;-70
2023/10/26 06:15:25;;;;;;;2.75;1.42;;;;;;;5.81;100.00;100255.38;4990546;28;20034;-70
2023/10/26 06:17:51;;;;;;;3.13;1.48;;;;;;;5.96;100.00;100266.13;4973522;28;20497;-70
2023/10/26 06:20:16;;;;;;;5.53;2.08;;;;;;;5.97;100.00;100278.47;4990410;28;20424;-70
2023/10/26 06:22:42;;;;;;;4.90;1.58;;;;;;;5.99;100.00;100275.59;4990969;28;20034;-70
2023/10/26 06:25:08;;;;;;;5.45;1.80;;;;;;;5.98;100.00;100273.94;4990910;28;20449;-70
2023/10/26 06:27:34;;;;;;;4.53;1.60;;;;;;;5.96;100.00;100267.94;4992335;28;20504;-69
2023/10/26 06:29:59;;;;;;;2.47;1.48;;;;;;;6.07;100.00;100280.88;4992075;28;20085;-70
2023/10/26 06:32:25;;;;;;;3.83;1.55;;;;;;;6.00;100.00;100283.44;4992163;28;20034;-70
2023/10/26 06:34:50;;;;;;;2.58;1.50;;;;;;;6.20;100.00;100272.22;4991932;28;20034;-70
2023/10/26 06:37:16;;;;;;;3.55;1.50;;;;;;;6.27;100.00;100284.66;4991036;28;20062;-70
2023/10/26 06:39:42;;;;;;;3.63;1.40;;;;;;;6.41;100.00;100279.50;4991612;28;20034;-70
2023/10/26 06:42:07;;;;;;;2.63;1.42;;;;;;;6.42;100.00;100268.63;4993750;28;20041;-70
2023/10/26 06:44:33;;;;;;;3.63;1.50;;;;;;;6.55;100.00;100284.81;5006274;28;20041;-70
2023/10/26 06:46:58;;;;;;;2.55;1.67;;;;;;;6.67;100.00;100287.03;4990691;28;20041;-70
2023/10/26 06:49:23;;;;;;;2.22;1.25;;;;;;;6.34;100.00;100282.91;4991425;28;20050;-70
2023/10/26 06:51:49;;;;;;;3.00;1.25;;;;;;;6.43;100.00;100282.84;4991754;28;20088;-70
2023/10/26 06:54:15;;;;;;;4.85;1.73;;;;;;;6.47;100.00;100287.59;4991455;28;20030;-70
2023/10/26 06:56:42;;;;;;;3.83;1.48;;;;;;;6.33;100.00;100272.41;4991665;28;20018;-71
2023/10/26 06:59:07;;;;;;;2.75;1.10;;;;;;;6.36;100.00;100282.75;4990340;28;20026;-70
2023/10/26 07:01:33;;;;;;;2.67;1.40;;;;;;;6.59;100.00;100282.63;4991664;28;20060;-71
2023/10/26 07:03:59;;;;;;;3.55;1.70;;;;;;;6.80;100.00;100277.34;4991140;28;20034;-70
2023/10/26 07:06:25;;;;;;;3.65;1.50;;;;;;;6.56;100.00;100281.16;4995778;28;20428;-70
2023/10/26 07:08:51;;;;;;;3.03;1.40;;;;;;;6.66;100.00;100264.84;4995854;28;20033;-70
2023/10/26 07:11:16;;;;;;;3.38;1.35;;;;;;;6.85;100.00;100276.75;4995713;28;20038;-70
2023/10/26 07:13:42;;;;;;;2.03;1.25;;;;;;;6.78;100.00;100287.38;4996032;28;20037;-71
2023/10/26 07:16:08;;;;;;;2.40;1.35;;;;;;;6.74;100.00;100274.59;4996709;28;20033;-70
2023/10/26 07:18:34;;;;;;;2.00;1.15;;;;;;;6.76;100.00;100277.91;4996018;28;20113;-70
2023/10/26 07:21:04;;;;;;;2.35;1.38;;;;;;;6.53;100.00;100262.81;4996114;28;20037;-70
2023/10/26 07:23:30;;;;;;;2.63;1.40;;;;;;;6.48;100.00;100275.91;4995758;28;20026;-70
2023/10/26 07:25:55;;;;;;;1.55;1.10;;;;;;;6.45;100.00;100283.47;4995551;28;20034;-70
2023/10/26 07:28:20;;;;;;;2.17;1.48;;;;;;;6.51;100.00;100277.38;4995708;28;20053;-70
2023/10/26 07:30:50;;;;;;;2.40;1.13;;;;;;;6.58;100.00;100280.97;4995625;28;20034;-70
2023/10/26 07:33:18;;;;;;;2.03;1.33;;;;;;;6.67;100.00;100279.03;4994718;28;20109;-70
2023/10/26 07:35:56;;;;;;;2.60;1.15;;;;;;;6.81;100.00;100267.47;4995186;28;20370;-70
2023/10/26 07:38:25;;;;;;;2.53;1.35;;;;;;;6.65;100.00;100281.03;4994261;28;20561;-70
2023/10/26 07:40:52;;;;;;;2.72;1.30;;;;;;;6.91;100.00;100284.03;4995551;28;20522;-70
2023/10/26 07:43:17;;;;;;;1.88;1.15;;;;;;;6.80;100.00;100285.34;4995177;28;20401;-70
2023/10/26 07:45:43;;;;;;;3.03;1.40;;;;;;;6.84;100.00;100277.78;4998919;28;20069;-70
2023/10/26 07:48:08;;;;;;;2.80;1.20;;;;;;;6.99;100.00;100277.78;4993820;28;20050;-70
2023/10/26 07:50:34;;;;;;;1.77;1.13;;;;;;;6.98;100.00;100276.91;4994738;28;20038;-70
2023/10/26 07:53:00;;;;;;;2.10;1.15;;;;;;;6.93;100.00;100279.34;4995221;28;20026;-71
2023/10/26 07:55:25;;;;;;;1.92;1.00;;;;;;;6.66;100.00;100274.69;4993396;28;20030;-70
2023/10/26 07:57:50;;;;;;;3.10;1.08;;;;;;;6.86;100.00;100275.78;4994327;28;20014;-70
2023/10/26 08:00:16;;;;;;;1.23;1.00;;;;;;;6.94;100.00;100291.69;4993870;28;20053;-70
2023/10/26 08:02:42;;;;;;;2.75;1.50;;;;;;;7.04;100.00;100280.69;4993638;28;20042;-70
2023/10/26 08:05:08;;;;;;;2.38;1.35;;;;;;;6.95;100.00;100281.81;4992437;28;20049;-70
2023/10/26 08:07:34;;;;;;;3.50;1.10;;;;;;;6.96;99.96;100267.44;4993775;28;20026;-70
2023/10/26 08:10:00;;;;;;;1.75;1.00;;;;;;;6.97;99.71;100285.16;4992818;28;20117;-70
2023/10/26 08:12:25;;;;;;;1.67;0.93;;;;;;;6.69;100.00;100266.28;4976487;28;20042;-70
2023/10/26 08:14:51;;;;;;;1.75;1.00;;;;;;;6.67;100.00;100285.19;4993668;28;20089;-70
2023/10/26 08:17:17;;;;;;;1.95;1.02;;;;;;;6.81;100.00;100254.91;4993792;28;20029;-71
2023/10/26 08:19:42;;;;;;;2.20;1.00;;;;;;;6.79;100.00;100285.56;4992178;28;20485;-70
2023/10/26 08:22:09;;;;;;;1.95;1.10;;;;;;;6.83;99.57;100252.91;4976013;28;20038;-70
2023/10/26 08:24:35;;;;;;;3.28;1.20;;;;;;;6.93;99.98;100273.16;4992245;28;20113;-70
2023/10/26 08:27:00;;;;;;;2.70;1.20;;;;;;;7.01;98.96;100289.91;4993785;28;20026;-70
2023/10/26 08:29:28;;;;;;;1.88;1.00;;;;;;;7.03;98.62;100285.22;4991838;28;20489;-70
2023/10/26 08:31:53;;;;;;;3.08;1.27;;;;;;;6.99;99.40;100280.44;4992614;28;20037;-70
2023/10/26 08:34:19;;;;;;;2.38;0.90;;;;;;;6.80;99.70;100279.19;4992738;28;20027;-70
2023/10/26 08:36:45;;;;;;;2.55;1.10;;;;;;;6.86;99.61;100274.94;4993165;28;20465;-70
2023/10/26 08:39:10;;;;;;;1.75;0.77;;;;;;;7.18;98.22;100281.66;4993829;28;20041;-70
2023/10/26 08:41:35;;;;;;;1.55;0.75;;;;;;;7.12;97.81;100293.97;5001552;28;20125;-69
2023/10/26 08:44:03;;;;;;;1.80;1.00;;;;;;;6.89;99.19;100291.44;4987475;28;20027;-70
2023/10/26 08:46:29;;;;;;;1.35;0.68;;;;;;;6.78;99.56;100291.91;4994758;28;20026;-69
2023/10/26 08:48:56;;;;;;;2.28;0.90;;;;;;;6.86;98.31;100291.00;4935980;28;1667386;-70
2023/10/26 08:51:22;;;;;;;1.85;0.90;;;;;;;7.14;98.06;100286.56;4994369;28;20034;-70
2023/10/26 08:53:47;;;;;;;1.83;0.80;;;;;;;7.15;97.41;100257.94;4995148;28;20046;-70
2023/10/26 08:56:17;;;;;;;1.55;0.85;;;;;;;7.11;97.63;100256.69;4995428;28;20064;-70
2023/10/26 08:58:43;;;;;;;2.05;0.77;;;;;;;7.44;96.37;100279.25;4994229;28;20054;-70
2023/10/26 09:01:08;;;;;;;1.45;0.70;;;;;;;7.09;97.76;100272.94;4994160;28;20286;-70
2023/10/26 09:03:37;;;;;;;1.20;0.60;;;;;;;6.86;97.49;100278.44;4992710;28;20043;-70
2023/10/26 09:06:02;;;;;;;1.27;0.63;;;;;;;6.90;97.16;100236.09;4993826;28;20030;-70
2023/10/26 09:08:29;;;;;;;4.32;0.95;;;;;;;7.02;96.77;100280.91;4994051;28;20083;-69
2023/10/26 09:10:55;;;;;;;1.20;0.55;;;;;;;6.97;97.33;100264.56;4992400;28;20050;-70
2023/10/26 09:13:25;;;;;;;1.50;0.88;;;;;;;7.28;96.79;100258.94;4993699;28;20041;-70
2023/10/26 09:15:53;;;;;;;1.70;0.55;;;;;;;7.30;96.73;100272.13;5008373;28;20029;-70
2023/10/26 09:18:20;;;;;;;0.95;0.60;;;;;;;7.01;95.47;100271.19;4993666;28;20026;-69
2023/10/26 09:21:06;;;;;;;1.45;0.80;;;;;;;7.19;95.59;100273.47;4993582;28;20037;-70
2023/10/26 09:23:43;;;;;;;3.00;0.80;;;;;;;7.37;95.17;100275.69;4993103;28;20366;-69
2023/10/26 09:26:10;;;;;;;2.45;0.60;;;;;;;7.32;95.10;100261.22;4992805;28;20033;-70
2023/10/26 09:28:55;;;;;;;1.42;0.60;;;;;;;7.09;95.37;100277.47;4991600;28;20453;-70
2023/10/26 09:31:21;;;;;;;0.65;0.57;;;;;;;7.04;96.83;100276.16;4991904;28;20050;-70
2023/10/26 09:33:47;;;;;;;1.77;0.80;;;;;;;7.29;95.43;100278.50;4991714;28;20537;-70
2023/10/26 09:36:18;;;;;;;2.35;0.60;;;;;;;7.19;94.57;100272.63;4991633;28;20125;-70
2023/10/26 09:38:43;;;;;;;0.80;0.50;;;;;;;7.00;96.10;100263.38;4991610;28;20525;-70
2023/10/26 09:41:15;;;;;;;0.77;0.50;;;;;;;7.10;96.38;100271.91;4975337;28;20073;-70
2023/10/26 09:43:41;;;;;;;0.93;0.57;;;;;;;7.06;95.64;100252.75;4993092;28;20069;-70
2023/10/26 09:46:08;;;;;;;1.55;0.70;;;;;;;7.12;94.98;100274.38;4991310;28;20444;-70
2023/10/26 09:48:34;;;;;;;0.68;0.40;;;;;;;7.36;94.42;100270.53;4992357;28;20419;-68
2023/10/26 09:51:00;;;;;;;1.88;0.88;;;;;;;7.52;94.75;100273.78;4991566;28;20022;-67
2023/10/26 09:53:32;;;;;;;0.82;0.70;;;;;;;7.54;94.01;100276.25;4992684;28;20436;-68
2023/10/26 09:55:58;;;;;;;4.45;0.82;;;;;;;7.66;93.40;100265.88;4992437;28;20034;-68
2023/10/26 09:58:27;;;;;;;1.25;0.60;;;;;;;7.29;94.88;100257.09;5009497;28;20543;-69
2023/10/26 10:00:53;;;;;;;0.60;0.45;;;;;;;7.29;95.43;100262.44;4995479;28;20026;-68
2023/10/26 10:03:18;;;;;;;0.90;0.55;;;;;;;7.41;93.61;100252.03;4994589;28;20100;-68
2023/10/26 10:05:47;;;;;;;1.27;0.55;;;;;;;7.51;94.60;100250.69;4991168;28;20041;-70
2023/10/26 10:08:13;;;;;;;1.13;0.50;;;;;;;7.43;94.59;100258.88;4992635;28;20072;-69
2023/10/26 10:11:13;;;;;;;1.00;0.50;;;;;;;7.47;93.20;100254.78;4991390;28;20121;-68
2023/10/26 10:13:39;;;;;;;1.20;0.50;;;;;;;7.68;92.17;100251.25;4975285;28;20053;-69
2023/10/26 10:16:04;;;;;;;0.60;0.50;;;;;;;7.67;91.51;100249.59;4992608;28;20030;-69
2023/10/26 10:18:30;;;;;;;0.80;0.47;;;;;;;7.57;92.29;100234.88;4992369;28;20085;-69
2023/10/26 10:20:55;;;;;;;0.70;0.57;;;;;;;7.79;91.63;100239.19;4990843;28;20481;-69
2023/10/26 10:23:29;;;;;;;0.77;0.50;;;;;;;7.61;91.08;100245.00;4991882;28;20030;-68
2023/10/26 10:25:56;;;;;;;1.10;0.50;;;;;;;7.43;92.05;100223.25;4991696;28;20446;-69
2023/10/26 10:28:22;;;;;;;0.60;0.47;;;;;;;7.85;91.61;100235.72;4990878;28;20437;-68
2023/10/26 10:30:57;;;;;;;1.52;0.50;;;;;;;7.75;91.38;100240.59;4991662;28;20049;-68
2023/10/26 10:33:29;;;;;;;1.10;0.50;;;;;;;7.62;91.81;100235.16;4990656;28;20022;-68
2023/10/26 10:36:01;;;;;;;0.77;0.50;;;;;;;7.54;91.70;100233.41;4990440;28;20030;-68
2023/10/26 10:38:28;;;;;;;0.70;0.45;;;;;;;7.97;90.98;100226.09;4991883;28;20034;-67
2023/10/26 10:40:54;;;;;;;3.58;0.88;;;;;;;7.77;90.52;100241.22;4990507;28;20085;-68
2023/10/26 10:43:33;;;;;;;0.90;0.57;;;;;;;7.67;90.36;100238.06;4992014;28;20034;-68
2023/10/26 10:46:29;;;;;;;0.85;0.50;;;;;;;7.84;90.92;100234.06;4990443;28;20033;-68
2023/10/26 10:49:08;;;;;;;1.15;0.65;;;;;;;8.00;89.93;100232.94;4990825;28;20469;-69
2023/10/26 10:51:42;;;;;;;0.95;0.60;;;;;;;7.91;89.53;100243.00;4975729;28;20038;-68
2023/10/26 10:54:13;;;;;;;0.63;0.50;;;;;;;7.95;90.17;100230.84;4992358;28;20037;-68
2023/10/26 10:56:47;;;;;;;1.38;0.60;;;;;;;7.92;89.48;100225.06;4991008;28;20041;-68
2023/10/26 10:59:26;;;;;;;1.25;0.50;;;;;;;7.61;89.97;100209.38;4991777;28;20057;-68
2023/10/26 11:02:17;;;;;;;2.05;0.63;;;;;;;8.06;89.58;100225.97;4991956;28;20029;-67
2023/10/26 11:04:56;;;;;;;0.82;0.60;;;;;;;8.07;89.58;100222.25;4990982;28;20417;-67
2023/10/26 11:07:25;;;;;;;0.73;0.50;;;;;;;7.74;89.67;100225.53;5006898;28;20117;-67
2023/10/26 11:09:58;;;;;;;2.88;0.60;;;;;;;7.97;88.53;100227.97;4990408;28;20084;-67
2023/10/26 11:12:24;;;;;;;1.20;0.50;;;;;;;8.20;87.52;100216.97;4992082;28;20110;-68
2023/10/26 11:14:52;;;;;;;0.95;0.50;;;;;;;7.98;87.90;100225.09;4992122;28;20179;-68
2023/10/26 11:17:22;;;;;;;0.55;0.40;;;;;;;8.17;88.54;100222.72;4991182;28;20019;-67
2023/10/26 11:19:48;;;;;;;0.98;0.40;;;;;;;7.91;88.24;100239.47;4991629;28;20026;-67
2023/10/26 11:22:14;;;;;;;2.78;0.50;;;;;;;8.04;88.10;100228.00;4991439;28;20033;-67
2023/10/26 11:24:40;;;;;;;1.80;0.57;;;;;;;8.07;88.76;100190.09;4990327;28;20031;-67